sensor_id;sensor_type;location;lat;lon;timestamp;temperature;humidity
16968;DHT22;64862;54.398;10.126;2023-07-29T00:06:26;17.30;87.20
16968;DHT22;64862;54.398;10.126;2023-07-29T00:16:29;17.30;87.50
16968;DHT22;64862;54.398;10.126;2023-07-29T00:26:31;17.20;87.40
16968;DHT22;64862;54.398;10.126;2023-07-29T00:36:35;17.20;87.60
16968;DHT22;64862;54.398;10.126;2023-07-29T00:46:38;17.10;87.50
16968;DHT22;64862;54.398;10.126;2023-07-29T00:56:43;17.00;87.60
16968;DHT22;64862;54.398;10.126;2023-07-29T01:06:53;17.10;87.80
16968;DHT22;64862;54.398;10.126;2023-07-29T01:27:23;17.20;87.70
16968;DHT22;64862;54.398;10.126;2023-07-29T01:37:30;17.00;87.50
16968;DHT22;64862;54.398;10.126;2023-07-29T01:47:36;17.00;87.70
16968;DHT22;64862;54.398;10.126;2023-07-29T01:57:40;16.90;87.80
16968;DHT22;64862;54.398;10.126;2023-07-29T02:07:46;16.80;87.90
16968;DHT22;64862;54.398;10.126;2023-07-29T02:17:50;16.80;87.90
16968;DHT22;64862;54.398;10.126;2023-07-29T02:27:54;16.90;88.20
16968;DHT22;64862;54.398;10.126;2023-07-29T02:37:57;17.00;88.10
16968;DHT22;64862;54.398;10.126;2023-07-29T02:48:00;17.00;88.10
16968;DHT22;64862;54.398;10.126;2023-07-29T02:58:02;17.00;88.10
16968;DHT22;64862;54.398;10.126;2023-07-29T03:08:06;17.10;88.30
16968;DHT22;64862;54.398;10.126;2023-07-29T03:18:08;17.10;88.40
16968;DHT22;64862;54.398;10.126;2023-07-29T03:28:12;17.10;88.40
16968;DHT22;64862;54.398;10.126;2023-07-29T03:38:15;17.10;88.30
16968;DHT22;64862;54.398;10.126;2023-07-29T03:48:19;17.10;88.40
16968;DHT22;64862;54.398;10.126;2023-07-29T03:58:21;17.10;88.50
16968;DHT22;64862;54.398;10.126;2023-07-29T04:08:25;17.10;88.60
16968;DHT22;64862;54.398;10.126;2023-07-29T04:18:28;17.20;88.90
16968;DHT22;64862;54.398;10.126;2023-07-29T04:28:32;17.20;89.10
16968;DHT22;64862;54.398;10.126;2023-07-29T04:38:37;17.20;89.10
16968;DHT22;64862;54.398;10.126;2023-07-29T04:48:40;17.20;89.60
16968;DHT22;64862;54.398;10.126;2023-07-29T04:58:43;17.20;90.00
16968;DHT22;64862;54.398;10.126;2023-07-29T05:08:47;17.20;90.20
16968;DHT22;64862;54.398;10.126;2023-07-29T05:18:49;17.20;90.40
16968;DHT22;64862;54.398;10.126;2023-07-29T05:28:53;17.10;90.50
16968;DHT22;64862;54.398;10.126;2023-07-29T05:38:55;17.20;90.70
16968;DHT22;64862;54.398;10.126;2023-07-29T05:48:59;17.30;90.80
16968;DHT22;64862;54.398;10.126;2023-07-29T05:59:01;17.30;90.80
16968;DHT22;64862;54.398;10.126;2023-07-29T06:09:05;17.40;91.00
16968;DHT22;64862;54.398;10.126;2023-07-29T06:19:07;17.60;91.00
16968;DHT22;64862;54.398;10.126;2023-07-29T06:29:11;17.70;91.20
16968;DHT22;64862;54.398;10.126;2023-07-29T06:39:14;18.00;91.20
16968;DHT22;64862;54.398;10.126;2023-07-29T06:49:18;18.30;91.40
16968;DHT22;64862;54.398;10.126;2023-07-29T06:59:20;18.40;91.30
16968;DHT22;64862;54.398;10.126;2023-07-29T07:09:23;18.70;91.10
16968;DHT22;64862;54.398;10.126;2023-07-29T07:19:26;18.70;90.90
16968;DHT22;64862;54.398;10.126;2023-07-29T07:29:29;18.80;91.00
16968;DHT22;64862;54.398;10.126;2023-07-29T07:39:32;19.10;90.90
16968;DHT22;64862;54.398;10.126;2023-07-29T07:49:36;19.40;90.40
16968;DHT22;64862;54.398;10.126;2023-07-29T07:59:38;19.50;90.20
16968;DHT22;64862;54.398;10.126;2023-07-29T08:09:42;19.50;90.10
16968;DHT22;64862;54.398;10.126;2023-07-29T08:19:44;19.50;89.80
16968;DHT22;64862;54.398;10.126;2023-07-29T08:29:48;19.60;90.20
16968;DHT22;64862;54.398;10.126;2023-07-29T08:39:50;19.60;89.60
16968;DHT22;64862;54.398;10.126;2023-07-29T08:49:56;19.80;88.50
16968;DHT22;64862;54.398;10.126;2023-07-29T08:59:58;19.90;87.40
16968;DHT22;64862;54.398;10.126;2023-07-29T09:10:02;20.10;86.90
16968;DHT22;64862;54.398;10.126;2023-07-29T09:20:05;20.40;85.60
16968;DHT22;64862;54.398;10.126;2023-07-29T09:30:15;20.40;84.50
16968;DHT22;64862;54.398;10.126;2023-07-29T09:40:18;20.40;84.80
16968;DHT22;64862;54.398;10.126;2023-07-29T09:50:34;20.40;84.80
16968;DHT22;64862;54.398;10.126;2023-07-29T10:00:37;20.50;84.00
16968;DHT22;64862;54.398;10.126;2023-07-29T10:10:42;20.50;80.90
16968;DHT22;64862;54.398;10.126;2023-07-29T10:20:45;20.40;80.40
16968;DHT22;64862;54.398;10.126;2023-07-29T10:30:52;20.80;78.10
16968;DHT22;64862;54.398;10.126;2023-07-29T10:40:56;21.20;75.10
16968;DHT22;64862;54.398;10.126;2023-07-29T10:51:29;21.30;76.40
16968;DHT22;64862;54.398;10.126;2023-07-29T11:01:33;21.00;76.20
16968;DHT22;64862;54.398;10.126;2023-07-29T11:11:39;21.20;77.20
16968;DHT22;64862;54.398;10.126;2023-07-29T11:21:41;21.40;74.90
16968;DHT22;64862;54.398;10.126;2023-07-29T11:31:46;21.30;74.60
16968;DHT22;64862;54.398;10.126;2023-07-29T11:41:49;21.40;72.90
16968;DHT22;64862;54.398;10.126;2023-07-29T11:51:53;21.70;73.10
16968;DHT22;64862;54.398;10.126;2023-07-29T12:01:55;22.10;71.60
16968;DHT22;64862;54.398;10.126;2023-07-29T12:12:12;22.30;71.30
16968;DHT22;64862;54.398;10.126;2023-07-29T12:22:19;22.60;68.60
16968;DHT22;64862;54.398;10.126;2023-07-29T12:32:25;22.50;68.90
16968;DHT22;64862;54.398;10.126;2023-07-29T12:42:27;22.00;69.30
16968;DHT22;64862;54.398;10.126;2023-07-29T12:52:31;21.90;70.10
16968;DHT22;64862;54.398;10.126;2023-07-29T13:02:33;21.80;71.00
16968;DHT22;64862;54.398;10.126;2023-07-29T13:12:37;22.20;70.10
16968;DHT22;64862;54.398;10.126;2023-07-29T13:22:39;22.10;69.50
16968;DHT22;64862;54.398;10.126;2023-07-29T13:32:43;22.10;70.60
16968;DHT22;64862;54.398;10.126;2023-07-29T13:42:45;22.30;69.40
16968;DHT22;64862;54.398;10.126;2023-07-29T13:53:06;22.10;69.80
16968;DHT22;64862;54.398;10.126;2023-07-29T14:03:09;22.00;70.70
16968;DHT22;64862;54.398;10.126;2023-07-29T14:13:12;22.00;68.80
16968;DHT22;64862;54.398;10.126;2023-07-29T14:23:14;21.90;69.60
16968;DHT22;64862;54.398;10.126;2023-07-29T14:33:24;21.90;69.40
16968;DHT22;64862;54.398;10.126;2023-07-29T14:43:27;22.00;69.30
16968;DHT22;64862;54.398;10.126;2023-07-29T14:53:30;21.90;71.60
16968;DHT22;64862;54.398;10.126;2023-07-29T15:03:32;21.90;68.50
16968;DHT22;64862;54.398;10.126;2023-07-29T15:13:36;21.90;68.70
16968;DHT22;64862;54.398;10.126;2023-07-29T15:23:38;22.10;67.70
16968;DHT22;64862;54.398;10.126;2023-07-29T15:33:42;22.00;67.10
16968;DHT22;64862;54.398;10.126;2023-07-29T15:43:44;22.10;67.30
16968;DHT22;64862;54.398;10.126;2023-07-29T15:53:48;22.00;67.30
16968;DHT22;64862;54.398;10.126;2023-07-29T16:03:50;21.80;67.20
16968;DHT22;64862;54.398;10.126;2023-07-29T16:13:53;21.90;67.70
16968;DHT22;64862;54.398;10.126;2023-07-29T16:23:55;21.80;68.10
16968;DHT22;64862;54.398;10.126;2023-07-29T16:33:59;21.40;68.60
16968;DHT22;64862;54.398;10.126;2023-07-29T16:44:01;21.20;69.80
16968;DHT22;64862;54.398;10.126;2023-07-29T16:54:05;21.10;71.00
16968;DHT22;64862;54.398;10.126;2023-07-29T17:04:07;21.00;72.30
16968;DHT22;64862;54.398;10.126;2023-07-29T17:14:11;21.10;71.30
16968;DHT22;64862;54.398;10.126;2023-07-29T17:24:16;21.90;68.70
16968;DHT22;64862;54.398;10.126;2023-07-29T17:34:26;21.40;70.30
16968;DHT22;64862;54.398;10.126;2023-07-29T17:44:28;20.90;71.60
16968;DHT22;64862;54.398;10.126;2023-07-29T17:54:32;21.00;71.90
16968;DHT22;64862;54.398;10.126;2023-07-29T18:04:34;20.90;71.30
16968;DHT22;64862;54.398;10.126;2023-07-29T18:14:38;20.60;72.40
16968;DHT22;64862;54.398;10.126;2023-07-29T18:24:40;20.40;74.10
16968;DHT22;64862;54.398;10.126;2023-07-29T18:34:48;20.30;74.60
16968;DHT22;64862;54.398;10.126;2023-07-29T18:44:50;20.10;74.30
16968;DHT22;64862;54.398;10.126;2023-07-29T18:54:55;19.90;74.60
16968;DHT22;64862;54.398;10.126;2023-07-29T19:04:58;19.70;75.70
16968;DHT22;64862;54.398;10.126;2023-07-29T19:15:02;19.50;76.80
16968;DHT22;64862;54.398;10.126;2023-07-29T19:25:05;19.40;77.70
16968;DHT22;64862;54.398;10.126;2023-07-29T19:35:10;19.20;78.50
16968;DHT22;64862;54.398;10.126;2023-07-29T19:45:12;19.10;79.40
16968;DHT22;64862;54.398;10.126;2023-07-29T19:55:16;18.90;79.60
16968;DHT22;64862;54.398;10.126;2023-07-29T20:05:18;18.80;80.00
16968;DHT22;64862;54.398;10.126;2023-07-29T20:15:22;18.60;81.00
16968;DHT22;64862;54.398;10.126;2023-07-29T20:25:24;18.50;80.80
16968;DHT22;64862;54.398;10.126;2023-07-29T20:35:28;18.40;80.90
16968;DHT22;64862;54.398;10.126;2023-07-29T20:45:30;18.20;80.20
16968;DHT22;64862;54.398;10.126;2023-07-29T20:55:34;17.90;81.00
16968;DHT22;64862;54.398;10.126;2023-07-29T21:05:36;17.80;80.90
16968;DHT22;64862;54.398;10.126;2023-07-29T21:15:39;17.70;81.50
16968;DHT22;64862;54.398;10.126;2023-07-29T21:25:45;17.60;81.80
16968;DHT22;64862;54.398;10.126;2023-07-29T21:35:50;17.50;82.30
16968;DHT22;64862;54.398;10.126;2023-07-29T21:45:52;17.50;82.40
16968;DHT22;64862;54.398;10.126;2023-07-29T21:55:55;17.40;82.60
16968;DHT22;64862;54.398;10.126;2023-07-29T22:06:06;17.40;82.90
16968;DHT22;64862;54.398;10.126;2023-07-29T22:16:10;17.20;83.10
16968;DHT22;64862;54.398;10.126;2023-07-29T22:26:13;17.20;82.90
16968;DHT22;64862;54.398;10.126;2023-07-29T22:36:16;17.10;83.00
16968;DHT22;64862;54.398;10.126;2023-07-29T22:46:19;17.00;83.10
16968;DHT22;64862;54.398;10.126;2023-07-29T22:56:22;16.90;83.80
16968;DHT22;64862;54.398;10.126;2023-07-29T23:06:24;16.90;84.00
16968;DHT22;64862;54.398;10.126;2023-07-29T23:16:28;17.00;83.90
16968;DHT22;64862;54.398;10.126;2023-07-29T23:26:30;16.80;83.90
16968;DHT22;64862;54.398;10.126;2023-07-29T23:36:33;16.70;84.00
16968;DHT22;64862;54.398;10.126;2023-07-29T23:46:35;16.70;84.00
16968;DHT22;64862;54.398;10.126;2023-07-29T23:56:39;16.60;84.20
